Aviation Digital Data Service (ADDS)

Output produced by METARs form (0238 UTC 22 July 2017)
found at http://www.aviationweather.gov/adds/metars/
 
DNAA 220100Z 17004KT CAVOK 22/19 Q1014 NOSIG
TAF DNAA 212140Z 2200/2306 00000KT 9999 FEW007 
     BECMG 2200/2202 CAVOK 
     PROB30 
     TEMPO 2204/2207 16004KT 5000 BR SCT007 
     BECMG 2207/2211 24010KT 9999 BKN010 
     TEMPO 2215/2218 TS FEW019CB
       
DNAA 220100Z 17004KT CAVOK 22/19 Q1014 NOSIG
TAF DNAA 212140Z 2200/2306 00000KT 9999 FEW007 
     BECMG 2200/2202 CAVOK 
     PROB30 
     TEMPO 2204/2207 16004KT 5000 BR SCT007 
     BECMG 2207/2211 24010KT 9999 BKN010 
     TEMPO 2215/2218 TS FEW019CB
       
TAF DNCA 210945Z 2112/2218 25010KT 8000 TS BKN009 FEW020CB 
     BECMG 2114/2117 NSW BKN011 
     BECMG 2119/2121 VRB02KT SCT009 
     TEMPO 2205/2207 5000 BR
       
TAF DNEN 210945Z 2112/2218 26012KT 9999 BKN012 FEW021CB 
     TEMPO 2114/2117 TS 
     BECMG 2119/2121 VRB02KT SCT009 
     TEMPO 2205/2207 3000 BR
       
TAF DNIL 212140Z 2200/2306 00000KT CAVOK 
     TEMPO 2204/2207 16004KT 5000 BR FEW007 
     BECMG 2208/2210 21010KT BKN010
       
TAF DNIM 210945Z 2112/2218 24010KT 9999 BKN012 FEW020CB 
     TEMPO 2112/2116 5000 -TSRA BKN008 FEW018CB 
     BECMG 2117/2120 VRB02KT SCT009 
     TEMPO 2205/2207 5000 BR
       
TAF DNJO 212140Z 2200/2306 17005KT FEW005 
     BECMG 2202/2204 CAVOK 
     TEMPO 2203/2207 5000 BR BKN005 
     BECMG 2207/2209 26012KT 9999 BKN010 
     TEMPO 2213/2218 TS FEW02CB
       
TAF DNKA 212140Z 2200/2306 21010KT 9999 BKN007 
     BECMG 2200/2202 VRB02KT FEW010 
     BECMG 2208/2210 24010KT BKN011
       
TAF DNMN 212140Z 2200/2306 22004KT 9999 -TSRA FEW009 FEW019CB 
     BECMG 2200/2202 VRB02KT CAVOK 
     BECMG 2208/2210 BKN010
       
DNPO 212300Z 00000KT 7000 SCT007 23/23 Q1014 NOSIG
TAF DNPO 210945Z 2112/2218 23010KT FEW020CB 
     TEMPO 2112/2116 5000 -TSRA BKN008 FEW018CB 
     BECMG 2117/2120 VRB02KT SCT009 
     TEMPO 2205/2207 5000 BR
       
DNAA 220100Z 17004KT CAVOK 22/19 Q1014 NOSIG
TAF DNAA 212140Z 2200/2306 00000KT 9999 FEW007 
     BECMG 2200/2202 CAVOK 
     PROB30 
     TEMPO 2204/2207 16004KT 5000 BR SCT007 
     BECMG 2207/2211 24010KT 9999 BKN010 
     TEMPO 2215/2218 TS FEW019CB
       
TAF DNCA 210945Z 2112/2218 25010KT 8000 TS BKN009 FEW020CB 
     BECMG 2114/2117 NSW BKN011 
     BECMG 2119/2121 VRB02KT SCT009 
     TEMPO 2205/2207 5000 BR
       
TAF DNEN 210945Z 2112/2218 26012KT 9999 BKN012 FEW021CB 
     TEMPO 2114/2117 TS 
     BECMG 2119/2121 VRB02KT SCT009 
     TEMPO 2205/2207 3000 BR
       
TAF DNIL 212140Z 2200/2306 00000KT CAVOK 
     TEMPO 2204/2207 16004KT 5000 BR FEW007 
     BECMG 2208/2210 21010KT BKN010
       
TAF DNIM 210945Z 2112/2218 24010KT 9999 BKN012 FEW020CB 
     TEMPO 2112/2116 5000 -TSRA BKN008 FEW018CB 
     BECMG 2117/2120 VRB02KT SCT009 
     TEMPO 2205/2207 5000 BR
       
TAF DNJO 212140Z 2200/2306 17005KT FEW005 
     BECMG 2202/2204 CAVOK 
     TEMPO 2203/2207 5000 BR BKN005 
     BECMG 2207/2209 26012KT 9999 BKN010 
     TEMPO 2213/2218 TS FEW02CB
       
TAF DNKA 212140Z 2200/2306 21010KT 9999 BKN007 
     BECMG 2200/2202 VRB02KT FEW010 
     BECMG 2208/2210 24010KT BKN011
       
TAF DNMN 212140Z 2200/2306 22004KT 9999 -TSRA FEW009 FEW019CB 
     BECMG 2200/2202 VRB02KT CAVOK 
     BECMG 2208/2210 BKN010
       
DNPO 212300Z 00000KT 7000 SCT007 23/23 Q1014 NOSIG
TAF DNPO 210945Z 2112/2218 23010KT FEW020CB 
     TEMPO 2112/2116 5000 -TSRA BKN008 FEW018CB 
     BECMG 2117/2120 VRB02KT SCT009 
     TEMPO 2205/2207 5000 BR
       
TAF DNCA 210945Z 2112/2218 25010KT 8000 TS BKN009 FEW020CB 
     BECMG 2114/2117 NSW BKN011 
     BECMG 2119/2121 VRB02KT SCT009 
     TEMPO 2205/2207 5000 BR
       
DNAA 220100Z 17004KT CAVOK 22/19 Q1014 NOSIG
TAF DNAA 212140Z 2200/2306 00000KT 9999 FEW007 
     BECMG 2200/2202 CAVOK 
     PROB30 
     TEMPO 2204/2207 16004KT 5000 BR SCT007 
     BECMG 2207/2211 24010KT 9999 BKN010 
     TEMPO 2215/2218 TS FEW019CB
       
TAF DNCA 210945Z 2112/2218 25010KT 8000 TS BKN009 FEW020CB 
     BECMG 2114/2117 NSW BKN011 
     BECMG 2119/2121 VRB02KT SCT009 
     TEMPO 2205/2207 5000 BR
       
TAF DNEN 210945Z 2112/2218 26012KT 9999 BKN012 FEW021CB 
     TEMPO 2114/2117 TS 
     BECMG 2119/2121 VRB02KT SCT009 
     TEMPO 2205/2207 3000 BR
       
TAF DNIL 212140Z 2200/2306 00000KT CAVOK 
     TEMPO 2204/2207 16004KT 5000 BR FEW007 
     BECMG 2208/2210 21010KT BKN010
       
TAF DNIM 210945Z 2112/2218 24010KT 9999 BKN012 FEW020CB 
     TEMPO 2112/2116 5000 -TSRA BKN008 FEW018CB 
     BECMG 2117/2120 VRB02KT SCT009 
     TEMPO 2205/2207 5000 BR
       
TAF DNJO 212140Z 2200/2306 17005KT FEW005 
     BECMG 2202/2204 CAVOK 
     TEMPO 2203/2207 5000 BR BKN005 
     BECMG 2207/2209 26012KT 9999 BKN010 
     TEMPO 2213/2218 TS FEW02CB
       
TAF DNKA 212140Z 2200/2306 21010KT 9999 BKN007 
     BECMG 2200/2202 VRB02KT FEW010 
     BECMG 2208/2210 24010KT BKN011
       
TAF DNMN 212140Z 2200/2306 22004KT 9999 -TSRA FEW009 FEW019CB 
     BECMG 2200/2202 VRB02KT CAVOK 
     BECMG 2208/2210 BKN010
       
DNPO 212300Z 00000KT 7000 SCT007 23/23 Q1014 NOSIG
TAF DNPO 210945Z 2112/2218 23010KT FEW020CB 
     TEMPO 2112/2116 5000 -TSRA BKN008 FEW018CB 
     BECMG 2117/2120 VRB02KT SCT009 
     TEMPO 2205/2207 5000 BR
       
TAF DNEN 210945Z 2112/2218 26012KT 9999 BKN012 FEW021CB 
     TEMPO 2114/2117 TS 
     BECMG 2119/2121 VRB02KT SCT009 
     TEMPO 2205/2207 3000 BR
       
DNAA 220100Z 17004KT CAVOK 22/19 Q1014 NOSIG
TAF DNAA 212140Z 2200/2306 00000KT 9999 FEW007 
     BECMG 2200/2202 CAVOK 
     PROB30 
     TEMPO 2204/2207 16004KT 5000 BR SCT007 
     BECMG 2207/2211 24010KT 9999 BKN010 
     TEMPO 2215/2218 TS FEW019CB
       
TAF DNCA 210945Z 2112/2218 25010KT 8000 TS BKN009 FEW020CB 
     BECMG 2114/2117 NSW BKN011 
     BECMG 2119/2121 VRB02KT SCT009 
     TEMPO 2205/2207 5000 BR
       
TAF DNEN 210945Z 2112/2218 26012KT 9999 BKN012 FEW021CB 
     TEMPO 2114/2117 TS 
     BECMG 2119/2121 VRB02KT SCT009 
     TEMPO 2205/2207 3000 BR
       
TAF DNIL 212140Z 2200/2306 00000KT CAVOK 
     TEMPO 2204/2207 16004KT 5000 BR FEW007 
     BECMG 2208/2210 21010KT BKN010
       
TAF DNIM 210945Z 2112/2218 24010KT 9999 BKN012 FEW020CB 
     TEMPO 2112/2116 5000 -TSRA BKN008 FEW018CB 
     BECMG 2117/2120 VRB02KT SCT009 
     TEMPO 2205/2207 5000 BR
       
TAF DNJO 212140Z 2200/2306 17005KT FEW005 
     BECMG 2202/2204 CAVOK 
     TEMPO 2203/2207 5000 BR BKN005 
     BECMG 2207/2209 26012KT 9999 BKN010 
     TEMPO 2213/2218 TS FEW02CB
       
TAF DNKA 212140Z 2200/2306 21010KT 9999 BKN007 
     BECMG 2200/2202 VRB02KT FEW010 
     BECMG 2208/2210 24010KT BKN011
       
TAF DNMN 212140Z 2200/2306 22004KT 9999 -TSRA FEW009 FEW019CB 
     BECMG 2200/2202 VRB02KT CAVOK 
     BECMG 2208/2210 BKN010
       
DNPO 212300Z 00000KT 7000 SCT007 23/23 Q1014 NOSIG
TAF DNPO 210945Z 2112/2218 23010KT FEW020CB 
     TEMPO 2112/2116 5000 -TSRA BKN008 FEW018CB 
     BECMG 2117/2120 VRB02KT SCT009 
     TEMPO 2205/2207 5000 BR
       
TAF DNIL 212140Z 2200/2306 00000KT CAVOK 
     TEMPO 2204/2207 16004KT 5000 BR FEW007 
     BECMG 2208/2210 21010KT BKN010
       
TAF DNJO 212140Z 2200/2306 17005KT FEW005 
     BECMG 2202/2204 CAVOK 
     TEMPO 2203/2207 5000 BR BKN005 
     BECMG 2207/2209 26012KT 9999 BKN010 
     TEMPO 2213/2218 TS FEW02CB
       
TAF DNKA 212140Z 2200/2306 21010KT 9999 BKN007 
     BECMG 2200/2202 VRB02KT FEW010 
     BECMG 2208/2210 24010KT BKN011
       
TAF DNMN 212140Z 2200/2306 22004KT 9999 -TSRA FEW009 FEW019CB 
     BECMG 2200/2202 VRB02KT CAVOK 
     BECMG 2208/2210 BKN010
       
DNPO 212300Z 00000KT 7000 SCT007 23/23 Q1014 NOSIG
TAF DNPO 210945Z 2112/2218 23010KT FEW020CB 
     TEMPO 2112/2116 5000 -TSRA BKN008 FEW018CB 
     BECMG 2117/2120 VRB02KT SCT009 
     TEMPO 2205/2207 5000 BR